Weather at Hurghada International Airport

Public forecast

Using degrees Celsius for public forecast. Weather courtesy of forecast.io.

Current aviation weather report (METAR) for Hurghada International Airport

Report is more than 6 hours old.

2024/06/24 06:00 (retrieved 1 day ago)

HEGN 240600Z 31005KT CAVOK 37/06 Q1006 NOSIG

Closest aviation forecast (TAF) to Hurghada International Airport

Forecast is more than 12 hours old.

Closest forecast is Al Wajh Domestic Airport, 155.3 nm (287.6 km) ESE.

2024/06/24 12:21 (retrieved 21 hours ago)

TAF OEWJ 241100Z 2412/2518 31015KT CAVOK BECMG 2420/2422 36005KT BECMG 2506/2508 31013KT